Al Cenac — WDF9939 — position and weather

sailwx.info

Track history (hours):
 
Tides and Currents Weather Stations Pressure Air Temp Water Temp Dewpoint Dewpoint Depression Visibility Wind Speed Wind Dir Waves Ship Positions

Al Cenac

Owner: Al Cenac Towing LLC, Houma, LA. More information available from US FCC via Universal Licensing System and Coast Guard Vessel Documentation Center.

Last reported at 2018-Feb-19 14:09 UTC. Time now 2018-Feb-21 09:07 UTC.
Position N 29°47' W 095°05'.

Length 22 m; draft 8.6 m.

Type: Tug. MMSI: 367510420.

Date/timePositionNaut miles runAvg speedWind from/ knotsBaromVisibWave heightAir tempDewpointWater temp
2018-Feb-19 14:09N 29°47' W 095°05'0 0.0
2018-Feb-19 13:59N 29°47' W 095°05'0 0.0
2018-Feb-19 13:25N 29°47' W 095°05'0 0.0
2018-Feb-19 12:49N 29°47' W 095°05'0 0.0
2018-Feb-19 11:39N 29°47' W 095°05'0 0.0
2018-Feb-19 11:17N 29°47' W 095°05'0 0.0
2018-Feb-19 10:58N 29°47' W 095°05'0 0.0
2018-Feb-19 10:30N 29°47' W 095°05'0 0.0
2018-Feb-19 09:55N 29°47' W 095°05'0 0.0
2018-Feb-19 09:29N 29°47' W 095°05'0 0.0
2018-Feb-19 08:47N 29°47' W 095°05'0 0.0
2018-Feb-19 08:14N 29°47' W 095°05'0 0.0
2018-Feb-19 04:14N 29°47' W 095°05'0 0.0
2018-Feb-19 03:44N 29°47' W 095°05'0 0.0
2018-Feb-19 03:27N 29°47' W 095°05'0 0.0
2018-Feb-19 03:00N 29°47' W 095°05'0 0.0
2018-Feb-18 13:21N 29°47' W 095°05'0 0.0
2018-Feb-18 12:52N 29°47' W 095°05'0 0.0
2018-Feb-18 12:25N 29°47' W 095°05'0 0.0
2018-Feb-18 10:44N 29°47' W 095°05'0 0.0
2018-Feb-18 10:30N 29°47' W 095°05'5 0.2
2018-Feb-17 02:29N 29°45' W 095°10'3 5.0
2018-Feb-17 01:55N 29°44' W 095°07'3 5.2
2018-Feb-17 01:25N 29°46' W 095°05'1 0.2
2018-Feb-16 17:53N 29°46' W 095°06'0 0.0
2018-Feb-16 17:25N 29°46' W 095°06'0 0.0
2018-Feb-16 16:57N 29°46' W 095°06'0 0.0
2018-Feb-16 16:06N 29°46' W 095°06'0 0.0
2018-Feb-16 15:56N 29°46' W 095°06'0 0.0
2018-Feb-16 15:30N 29°46' W 095°06'  
2018-Feb-10 21:03N 29°44' W 095°04'1 5.9
2018-Feb-10 20:56N 29°44' W 095°03'2 4.8
2018-Feb-10 20:30N 29°43' W 095°01'3 5.4
2018-Feb-10 20:00N 29°41' W 094°59'3 5.8
2018-Feb-10 19:30N 29°38' W 094°58'3 5.0
2018-Feb-10 19:00N 29°36' W 094°57'3 6.4
2018-Feb-10 18:30N 29°33' W 094°55'26 1.3
2018-Feb-09 23:14N 29°35' W 094°25'5 3.8
2018-Feb-09 21:58N 29°37' W 094°20'14 5.7
2018-Feb-09 19:30N 29°44' W 094°06'3 6.5
2018-Feb-09 19:00N 29°46' W 094°03'6 6.2
2018-Feb-09 18:00N 29°50' W 093°57'10 6.6
2018-Feb-09 16:30N 29°58' W 093°51'6 5.7
2018-Feb-09 15:30N 30°01' W 093°45'0 0.6
2018-Feb-09 15:00N 30°01' W 093°45'  
Track history (hours):
 
Tides and Currents Weather Stations Pressure Air Temp Water Temp Dewpoint Dewpoint Depression Visibility Wind Speed Wind Dir Waves Ship Positions

Al Cenac

Owner: Al Cenac Towing LLC, Houma, LA. More information available from US FCC via Universal Licensing System and Coast Guard Vessel Documentation Center.

Last reported at 2018-Feb-19 14:09 UTC. Time now 2018-Feb-21 09:07 UTC.
Position N 29°47' W 095°05'.

Length 22 m; draft 8.6 m.

Type: Tug. MMSI: 367510420.

Date/timePositionNaut miles runAvg speedWind from/ knotsBaromVisibWave heightAir tempDewpointWater temp
2018-Feb-19 14:09N 29°47' W 095°05'0 0.0
2018-Feb-19 13:59N 29°47' W 095°05'0 0.0
2018-Feb-19 13:25N 29°47' W 095°05'0 0.0
2018-Feb-19 12:49N 29°47' W 095°05'0 0.0
2018-Feb-19 11:39N 29°47' W 095°05'0 0.0
2018-Feb-19 11:17N 29°47' W 095°05'0 0.0
2018-Feb-19 10:58N 29°47' W 095°05'0 0.0
2018-Feb-19 10:30N 29°47' W 095°05'0 0.0
2018-Feb-19 09:55N 29°47' W 095°05'0 0.0
2018-Feb-19 09:29N 29°47' W 095°05'0 0.0
2018-Feb-19 08:47N 29°47' W 095°05'0 0.0
2018-Feb-19 08:14N 29°47' W 095°05'0 0.0
2018-Feb-19 04:14N 29°47' W 095°05'0 0.0
2018-Feb-19 03:44N 29°47' W 095°05'0 0.0
2018-Feb-19 03:27N 29°47' W 095°05'0 0.0
2018-Feb-19 03:00N 29°47' W 095°05'0 0.0
2018-Feb-18 13:21N 29°47' W 095°05'0 0.0
2018-Feb-18 12:52N 29°47' W 095°05'0 0.0
2018-Feb-18 12:25N 29°47' W 095°05'0 0.0
2018-Feb-18 10:44N 29°47' W 095°05'0 0.0
2018-Feb-18 10:30N 29°47' W 095°05'5 0.2
2018-Feb-17 02:29N 29°45' W 095°10'3 5.0
2018-Feb-17 01:55N 29°44' W 095°07'3 5.2
2018-Feb-17 01:25N 29°46' W 095°05'1 0.2
2018-Feb-16 17:53N 29°46' W 095°06'0 0.0
2018-Feb-16 17:25N 29°46' W 095°06'0 0.0
2018-Feb-16 16:57N 29°46' W 095°06'0 0.0
2018-Feb-16 16:06N 29°46' W 095°06'0 0.0
2018-Feb-16 15:56N 29°46' W 095°06'0 0.0
2018-Feb-16 15:30N 29°46' W 095°06'  
2018-Feb-10 21:03N 29°44' W 095°04'1 5.9
2018-Feb-10 20:56N 29°44' W 095°03'2 4.8
2018-Feb-10 20:30N 29°43' W 095°01'3 5.4
2018-Feb-10 20:00N 29°41' W 094°59'3 5.8
2018-Feb-10 19:30N 29°38' W 094°58'3 5.0
2018-Feb-10 19:00N 29°36' W 094°57'3 6.4
2018-Feb-10 18:30N 29°33' W 094°55'26 1.3
2018-Feb-09 23:14N 29°35' W 094°25'5 3.8
2018-Feb-09 21:58N 29°37' W 094°20'14 5.7
2018-Feb-09 19:30N 29°44' W 094°06'3 6.5
2018-Feb-09 19:00N 29°46' W 094°03'6 6.2
2018-Feb-09 18:00N 29°50' W 093°57'10 6.6
2018-Feb-09 16:30N 29°58' W 093°51'6 5.7
2018-Feb-09 15:30N 30°01' W 093°45'0 0.6
2018-Feb-09 15:00N 30°01' W 093°45'  

Dump ship's entire track history